createdAt,value
2023-04-23T00:02:02.830Z,16.60
2023-04-23T00:04:34.385Z,16.60
2023-04-23T00:07:03.412Z,16.60
2023-04-23T00:09:33.526Z,16.60
2023-04-23T00:12:01.808Z,16.50
2023-04-23T00:14:28.939Z,16.50
2023-04-23T00:16:56.006Z,16.50
2023-04-23T00:19:22.656Z,16.50
2023-04-23T00:21:49.400Z,16.50
2023-04-23T00:24:16.101Z,16.50
2023-04-23T00:26:42.755Z,16.40
2023-04-23T00:29:09.863Z,16.40
2023-04-23T00:31:36.570Z,16.30
2023-04-23T00:34:03.568Z,16.30
2023-04-23T00:36:30.818Z,16.30
2023-04-23T00:38:57.630Z,16.30
2023-04-23T00:41:25.415Z,16.30
2023-04-23T00:43:53.224Z,16.20
2023-04-23T00:46:20.731Z,16.20
2023-04-23T00:48:48.084Z,16.20
2023-04-23T00:51:16.702Z,16.20
2023-04-23T00:53:43.542Z,16.10
2023-04-23T00:56:11.064Z,16.10
2023-04-23T00:58:38.180Z,16.10
2023-04-23T01:01:05.742Z,16.10
2023-04-23T01:03:36.302Z,16.00
2023-04-23T01:06:04.207Z,16.00
2023-04-23T01:08:32.464Z,16.00
2023-04-23T01:10:59.906Z,15.90
2023-04-23T01:13:29.509Z,15.90
2023-04-23T01:15:56.886Z,15.90
2023-04-23T01:18:24.636Z,15.90
2023-04-23T01:20:51.704Z,15.80
2023-04-23T01:23:18.516Z,15.80
2023-04-23T01:25:45.426Z,15.80
2023-04-23T01:28:12.748Z,15.70
2023-04-23T01:30:41.748Z,15.70
2023-04-23T01:33:09.068Z,15.70
2023-04-23T01:35:36.590Z,15.70
2023-04-23T01:38:04.878Z,15.60
2023-04-23T01:40:31.655Z,15.60
2023-04-23T01:42:58.994Z,15.60
2023-04-23T01:45:25.892Z,15.60
2023-04-23T01:47:53.067Z,15.50
2023-04-23T01:50:23.119Z,15.50
2023-04-23T01:52:49.915Z,15.50
2023-04-23T01:55:19.072Z,15.50
2023-04-23T01:57:47.442Z,15.40
2023-04-23T02:00:15.286Z,15.40
2023-04-23T02:02:43.424Z,15.40
2023-04-23T02:05:12.992Z,15.40
2023-04-23T02:07:40.481Z,15.40
2023-04-23T02:10:08.206Z,15.40
2023-04-23T02:12:34.945Z,15.40
2023-04-23T02:15:01.720Z,15.30
2023-04-23T02:17:29.112Z,15.30
2023-04-23T02:19:55.982Z,15.30
2023-04-23T02:22:25.217Z,15.30
2023-04-23T02:24:52.895Z,15.30
2023-04-23T02:27:20.418Z,15.20
2023-04-23T02:29:48.245Z,15.20
2023-04-23T02:32:15.587Z,15.20
2023-04-23T02:34:42.658Z,15.20
2023-04-23T02:37:09.672Z,15.20
2023-04-23T02:39:38.806Z,15.20
2023-04-23T02:42:05.619Z,15.20
2023-04-23T02:44:32.312Z,15.20
2023-04-23T02:46:59.156Z,15.10
2023-04-23T02:49:26.719Z,15.10
2023-04-23T02:51:53.431Z,15.10
2023-04-23T02:54:20.258Z,15.10
2023-04-23T02:56:46.999Z,15.10
2023-04-23T02:59:13.829Z,15.10
2023-04-23T03:01:41.272Z,15.10
2023-04-23T03:04:09.870Z,15.00
2023-04-23T03:06:37.329Z,15.00
2023-04-23T03:09:04.775Z,15.00
2023-04-23T03:11:32.143Z,15.00
2023-04-23T03:13:59.126Z,14.90
2023-04-23T03:16:28.436Z,14.90
2023-04-23T03:18:55.720Z,14.90
2023-04-23T03:21:22.671Z,14.90
2023-04-23T03:23:49.968Z,14.80
2023-04-23T03:26:17.272Z,14.80
2023-04-23T03:28:43.922Z,14.80
2023-04-23T03:31:10.827Z,14.80
2023-04-23T03:33:37.562Z,14.70
2023-04-23T03:36:05.552Z,14.80
2023-04-23T03:38:33.009Z,14.70
2023-04-23T03:41:00.875Z,14.70
2023-04-23T03:43:27.845Z,14.70
2023-04-23T03:46:03.348Z,14.60
2023-04-23T03:48:33.551Z,14.60
2023-04-23T03:51:04.257Z,14.60
2023-04-23T03:53:36.550Z,14.50
2023-04-23T03:56:21.899Z,14.50
2023-04-23T03:59:08.044Z,14.50
2023-04-23T04:01:36.207Z,14.50
2023-04-23T04:04:03.424Z,14.50
2023-04-23T04:06:33.356Z,14.50
2023-04-23T04:09:00.136Z,14.40
2023-04-23T04:11:27.962Z,14.40
2023-04-23T04:13:54.683Z,14.40
2023-04-23T04:16:21.442Z,14.40
2023-04-23T04:18:48.122Z,14.30
2023-04-23T04:21:15.936Z,14.30
2023-04-23T04:23:43.467Z,14.30
2023-04-23T04:26:10.804Z,14.30
2023-04-23T04:28:37.679Z,14.30
2023-04-23T04:31:05.481Z,14.30
2023-04-23T04:33:33.270Z,14.20
2023-04-23T04:36:00.533Z,14.20
2023-04-23T04:38:28.306Z,14.20
2023-04-23T04:40:58.802Z,14.20
2023-04-23T04:43:26.502Z,14.20
2023-04-23T04:45:53.671Z,14.20
2023-04-23T04:48:20.637Z,14.20
2023-04-23T04:50:47.737Z,14.20
2023-04-23T04:53:14.606Z,14.20
2023-04-23T04:55:41.497Z,14.20
2023-04-23T04:58:08.185Z,14.20
2023-04-23T05:00:34.966Z,14.20
2023-04-23T05:03:02.025Z,14.20
2023-04-23T05:05:28.784Z,14.10
2023-04-23T05:07:58.957Z,14.10
2023-04-23T05:10:26.390Z,14.10
2023-04-23T05:12:53.426Z,14.10
2023-04-23T05:15:20.362Z,14.10
2023-04-23T05:17:47.174Z,14.10
2023-04-23T05:20:14.243Z,14.10
2023-04-23T05:22:42.340Z,14.10
2023-04-23T05:25:11.689Z,14.00
2023-04-23T05:27:38.980Z,14.10
2023-04-23T05:30:09.457Z,14.10
2023-04-23T05:32:36.928Z,14.10
2023-04-23T05:35:04.520Z,14.10
2023-04-23T05:37:31.399Z,14.10
2023-04-23T05:39:58.242Z,14.10
2023-04-23T05:42:25.103Z,14.10
2023-04-23T05:44:51.965Z,14.20
2023-04-23T05:47:18.688Z,14.20
2023-04-23T05:49:45.601Z,14.20
2023-04-23T05:52:12.396Z,14.20
2023-04-23T05:54:39.543Z,14.30
2023-04-23T05:57:06.317Z,14.30
2023-04-23T05:59:34.354Z,14.40
2023-04-23T06:02:01.930Z,14.40
2023-04-23T06:04:28.814Z,14.50
2023-04-23T06:06:55.689Z,14.50
2023-04-23T06:09:22.371Z,14.60
2023-04-23T06:11:50.633Z,14.60
2023-04-23T06:14:17.368Z,14.70
2023-04-23T06:16:44.063Z,14.70
2023-04-23T06:19:11.922Z,14.80
2023-04-23T06:21:39.057Z,14.80
2023-04-23T06:24:07.305Z,14.90
2023-04-23T06:26:34.167Z,15.00
2023-04-23T06:29:07.904Z,15.00
2023-04-23T06:31:56.646Z,15.10
2023-04-23T06:34:23.650Z,15.20
2023-04-23T06:36:51.619Z,15.30
2023-04-23T06:39:18.313Z,15.50
2023-04-23T06:41:45.099Z,15.70
2023-04-23T06:44:20.936Z,15.90
2023-04-23T06:46:51.572Z,16.20
2023-04-23T06:49:18.624Z,16.40
2023-04-23T06:51:45.642Z,16.80
2023-04-23T06:54:12.299Z,17.20
2023-04-23T06:56:38.913Z,17.40
2023-04-23T06:59:06.933Z,17.70
2023-04-23T07:01:36.087Z,17.90
2023-04-23T07:04:02.760Z,18.10
2023-04-23T07:06:29.442Z,18.30
2023-04-23T07:08:56.118Z,18.40
2023-04-23T07:11:23.664Z,18.50
2023-04-23T07:13:50.480Z,18.50
2023-04-23T07:16:18.076Z,18.50
2023-04-23T07:18:45.891Z,18.60
2023-04-23T07:21:12.576Z,18.70
2023-04-23T07:23:39.241Z,18.70
2023-04-23T07:26:06.066Z,18.80
2023-04-23T07:28:32.826Z,18.80
2023-04-23T07:30:59.597Z,18.90
2023-04-23T07:33:26.433Z,18.90
2023-04-23T07:35:53.158Z,18.90
2023-04-23T07:38:19.834Z,18.90
2023-04-23T07:40:47.310Z,18.90
2023-04-23T07:43:14.005Z,18.90
2023-04-23T07:45:40.686Z,18.90
2023-04-23T07:48:07.440Z,18.80
2023-04-23T07:50:34.107Z,18.80
2023-04-23T07:53:00.922Z,18.80
2023-04-23T07:55:27.556Z,18.80
2023-04-23T07:57:54.180Z,19.00
2023-04-23T08:00:20.930Z,19.00
2023-04-23T08:02:47.720Z,19.10
2023-04-23T08:05:14.690Z,19.30
2023-04-23T08:07:41.438Z,19.60
2023-04-23T08:10:08.613Z,19.80
2023-04-23T08:12:35.906Z,20.30
2023-04-23T08:15:03.558Z,20.60
2023-04-23T08:17:37.442Z,21.10
2023-04-23T08:20:08.533Z,21.50
2023-04-23T08:22:35.270Z,21.90
2023-04-23T08:25:02.120Z,22.30
2023-04-23T08:27:28.868Z,22.60
2023-04-23T08:29:55.895Z,22.80
2023-04-23T08:32:22.731Z,23.10
2023-04-23T08:34:49.607Z,23.30
2023-04-23T08:37:27.283Z,23.70
2023-04-23T08:39:57.296Z,24.00
2023-04-23T08:42:35.487Z,24.40
2023-04-23T08:45:04.196Z,24.70
2023-04-23T08:47:32.471Z,25.20
2023-04-23T08:49:59.749Z,25.50
2023-04-23T08:52:29.261Z,25.80
2023-04-23T08:55:02.161Z,26.10
2023-04-23T08:57:30.660Z,26.40
2023-04-23T08:59:58.174Z,26.70
2023-04-23T09:02:25.500Z,26.90
2023-04-23T09:04:56.144Z,27.00
2023-04-23T09:07:23.445Z,27.10
2023-04-23T09:09:50.209Z,27.30
2023-04-23T09:12:17.194Z,27.40
2023-04-23T09:14:44.909Z,27.50
2023-04-23T09:17:11.964Z,27.60
2023-04-23T09:19:40.023Z,27.70
2023-04-23T09:22:07.707Z,27.80
2023-04-23T09:24:34.725Z,27.90
2023-04-23T09:27:01.400Z,27.90
2023-04-23T09:29:28.487Z,28.00
2023-04-23T09:32:07.496Z,28.20
2023-04-23T09:34:36.820Z,28.20
2023-04-23T09:37:05.440Z,28.20
2023-04-23T09:39:34.506Z,28.30
2023-04-23T09:42:05.772Z,28.30
2023-04-23T09:44:34.003Z,28.30
2023-04-23T09:47:12.008Z,28.30
2023-04-23T09:49:49.160Z,28.40
2023-04-23T09:52:16.702Z,28.40
2023-04-23T09:54:44.310Z,28.40
2023-04-23T09:57:11.672Z,28.40
2023-04-23T09:59:47.717Z,28.40
2023-04-23T10:02:15.599Z,28.50
2023-04-23T10:04:42.764Z,28.50
2023-04-23T10:09:43.523Z,28.50
2023-04-23T10:12:24.296Z,28.50
2023-04-23T10:14:59.712Z,28.60
2023-04-23T10:17:26.881Z,28.80
2023-04-23T10:19:55.571Z,28.90
2023-04-23T10:22:24.800Z,29.30
2023-04-23T10:25:03.760Z,29.30
2023-04-23T10:27:48.348Z,29.40
2023-04-23T10:30:18.862Z,29.40
2023-04-23T10:32:49.329Z,29.50
2023-04-23T10:35:16.419Z,29.50
2023-04-23T10:37:44.498Z,29.50
2023-04-23T10:40:14.138Z,29.60
2023-04-23T10:42:42.637Z,29.60
2023-04-23T10:47:47.382Z,29.60
2023-04-23T10:50:20.805Z,29.50
2023-04-23T10:52:51.441Z,29.40
2023-04-23T10:55:23.393Z,29.30
2023-04-23T10:58:07.299Z,29.20
2023-04-23T11:00:45.983Z,29.00
2023-04-23T11:03:39.608Z,28.90
2023-04-23T11:06:12.242Z,28.70
2023-04-23T11:08:53.554Z,28.50
2023-04-23T11:11:45.162Z,28.30
2023-04-23T11:14:15.597Z,28.20
2023-04-23T11:16:42.428Z,28.10
2023-04-23T11:19:15.944Z,28.10
2023-04-23T11:22:03.127Z,27.80
2023-04-23T11:24:34.290Z,27.80
2023-04-23T11:27:02.597Z,27.60
2023-04-23T11:29:29.368Z,27.50
2023-04-23T11:34:26.526Z,27.30
2023-04-23T11:36:57.207Z,27.30
2023-04-23T11:39:24.580Z,27.20
2023-04-23T11:41:52.379Z,27.10
2023-04-23T11:44:21.219Z,27.00
2023-04-23T11:46:49.492Z,27.00
2023-04-23T11:49:18.582Z,26.90
2023-04-23T11:51:46.516Z,26.80
2023-04-23T11:54:14.593Z,26.80
2023-04-23T11:56:41.769Z,26.70
2023-04-23T11:59:08.891Z,26.70
2023-04-23T12:01:46.259Z,26.60
2023-04-23T12:04:13.913Z,26.60
2023-04-23T12:06:42.835Z,26.50
2023-04-23T12:09:11.494Z,26.50
2023-04-23T12:11:38.788Z,26.50
2023-04-23T12:14:05.518Z,26.40
2023-04-23T12:16:40.188Z,26.40
2023-04-23T12:19:31.128Z,26.30
2023-04-23T12:21:59.970Z,26.20
2023-04-23T12:24:32.152Z,26.10
2023-04-23T12:27:02.737Z,26.00
2023-04-23T12:29:30.993Z,25.90
2023-04-23T12:32:00.729Z,25.80
2023-04-23T12:34:27.524Z,25.70
2023-04-23T12:36:56.198Z,25.60
2023-04-23T12:39:32.214Z,25.50
2023-04-23T12:42:08.088Z,25.40
2023-04-23T12:44:36.259Z,25.40
2023-04-23T12:47:05.789Z,25.30
2023-04-23T12:49:34.049Z,25.20
2023-04-23T12:52:02.924Z,25.10
2023-04-23T12:54:37.181Z,25.00
2023-04-23T12:57:05.829Z,25.00
2023-04-23T12:59:32.860Z,24.90
2023-04-23T13:02:03.681Z,24.90
2023-04-23T13:04:32.395Z,24.90
2023-04-23T13:06:59.160Z,24.90
2023-04-23T13:09:27.742Z,24.80
2023-04-23T13:11:54.819Z,24.70
2023-04-23T13:14:21.638Z,24.60
2023-04-23T13:16:48.888Z,24.60
2023-04-23T13:19:17.043Z,24.50
2023-04-23T13:21:44.805Z,24.40
2023-04-23T13:24:11.635Z,24.30
2023-04-23T13:26:38.352Z,24.10
2023-04-23T13:29:05.196Z,24.00
2023-04-23T13:31:31.958Z,23.80
2023-04-23T13:33:59.015Z,23.70
2023-04-23T13:36:25.936Z,23.50
2023-04-23T13:38:52.779Z,23.40
2023-04-23T13:41:19.466Z,23.30
2023-04-23T13:43:46.248Z,23.10
2023-04-23T13:46:14.129Z,23.10
2023-04-23T13:48:41.837Z,23.00
2023-04-23T13:51:21.457Z,23.00
2023-04-23T13:53:53.157Z,23.00
2023-04-23T13:56:19.926Z,23.00
2023-04-23T13:58:48.332Z,23.00
2023-04-23T14:01:15.729Z,23.10
2023-04-23T14:03:42.629Z,23.20
2023-04-23T14:06:09.388Z,23.20
2023-04-23T14:08:36.856Z,23.20
2023-04-23T14:11:04.510Z,23.20
2023-04-23T14:13:32.790Z,23.20
2023-04-23T14:16:01.957Z,23.20
2023-04-23T14:18:30.261Z,23.20
2023-04-23T14:20:57.105Z,23.20
2023-04-23T14:23:23.945Z,23.20
2023-04-23T14:25:58.914Z,23.20
2023-04-23T14:28:45.182Z,23.20
2023-04-23T14:31:12.133Z,23.20
2023-04-23T14:33:38.783Z,23.20
2023-04-23T14:36:05.781Z,23.20
2023-04-23T14:38:32.486Z,23.20
2023-04-23T14:40:59.123Z,23.20
2023-04-23T14:43:25.788Z,23.20
2023-04-23T14:45:52.612Z,23.20
2023-04-23T14:48:19.285Z,23.30
2023-04-23T14:50:46.363Z,23.20
2023-04-23T14:53:13.028Z,23.20
2023-04-23T14:55:43.321Z,23.20
2023-04-23T14:58:10.022Z,23.20
2023-04-23T15:00:36.757Z,23.20
2023-04-23T15:03:10.018Z,23.10
2023-04-23T15:05:37.788Z,23.10
2023-04-23T15:08:04.674Z,23.10
2023-04-23T15:10:31.617Z,23.00
2023-04-23T15:13:02.224Z,23.00
2023-04-23T15:15:55.262Z,23.00
2023-04-23T15:18:22.015Z,22.90
2023-04-23T15:20:48.652Z,22.90
2023-04-23T15:23:15.652Z,22.90
2023-04-23T15:25:42.359Z,22.90
2023-04-23T15:28:09.061Z,22.90
2023-04-23T15:30:35.805Z,22.90
2023-04-23T15:33:02.509Z,22.90
2023-04-23T15:35:29.409Z,22.90
2023-04-23T15:37:56.998Z,22.90
2023-04-23T15:40:23.784Z,22.80
2023-04-23T15:42:50.762Z,22.80
2023-04-23T15:45:18.011Z,22.80
2023-04-23T15:47:44.677Z,22.80
2023-04-23T15:50:11.655Z,22.80
2023-04-23T15:52:38.948Z,22.80
2023-04-23T15:55:06.514Z,22.70
2023-04-23T15:57:33.298Z,22.70
2023-04-23T16:00:00.024Z,22.70
2023-04-23T16:02:27.259Z,22.60
2023-04-23T16:04:54.071Z,22.60
2023-04-23T16:07:20.751Z,22.60
2023-04-23T16:09:47.567Z,22.60
2023-04-23T16:12:14.254Z,22.50
2023-04-23T16:14:42.584Z,22.50
2023-04-23T16:17:09.467Z,22.50
2023-04-23T16:19:36.301Z,22.50
2023-04-23T16:22:03.051Z,22.40
2023-04-23T16:24:29.888Z,22.40
2023-04-23T16:26:56.795Z,22.30
2023-04-23T16:29:23.786Z,22.30
2023-04-23T16:31:50.913Z,22.30
2023-04-23T16:34:17.669Z,22.30
2023-04-23T16:36:44.416Z,22.30
2023-04-23T16:39:11.431Z,22.30
2023-04-23T16:41:38.399Z,22.20
2023-04-23T16:44:05.289Z,22.20
2023-04-23T16:46:32.307Z,22.20
2023-04-23T16:48:59.365Z,22.10
2023-04-23T16:51:26.873Z,22.10
2023-04-23T16:53:53.902Z,22.00
2023-04-23T16:56:21.359Z,22.00
2023-04-23T16:58:48.278Z,22.00
2023-04-23T17:01:16.540Z,22.00
2023-04-23T17:03:44.212Z,21.80
2023-04-23T17:06:31.285Z,21.80
2023-04-23T17:08:59.999Z,21.70
2023-04-23T17:11:30.763Z,21.50
2023-04-23T17:13:58.062Z,21.40
2023-04-23T17:16:28.000Z,21.30
2023-04-23T17:18:55.519Z,21.20
2023-04-23T17:21:22.861Z,21.00
2023-04-23T17:23:49.758Z,20.90
2023-04-23T17:26:16.553Z,20.80
2023-04-23T17:28:43.278Z,20.70
2023-04-23T17:31:10.147Z,20.60
2023-04-23T17:33:36.947Z,20.50
2023-04-23T17:36:03.955Z,20.40
2023-04-23T17:38:30.685Z,20.30
2023-04-23T17:40:58.621Z,20.20
2023-04-23T17:43:25.753Z,20.10
2023-04-23T17:45:52.464Z,20.10
2023-04-23T17:48:21.452Z,20.00
2023-04-23T17:50:49.508Z,20.00
2023-04-23T17:53:16.297Z,19.90
2023-04-23T17:55:42.970Z,19.90
2023-04-23T17:58:09.629Z,19.80
2023-04-23T18:00:41.684Z,19.70
2023-04-23T18:03:09.765Z,19.70
2023-04-23T18:05:36.654Z,19.70
2023-04-23T18:08:04.397Z,19.60
2023-04-23T18:10:31.253Z,19.60
2023-04-23T18:13:00.870Z,19.50
2023-04-23T18:15:28.996Z,19.40
2023-04-23T18:17:55.892Z,19.40
2023-04-23T18:20:24.878Z,19.40
2023-04-23T18:22:54.170Z,19.30
2023-04-23T18:25:21.254Z,19.30
2023-04-23T18:27:48.614Z,19.20
2023-04-23T18:30:15.540Z,19.20
2023-04-23T18:32:47.985Z,19.10
2023-04-23T18:35:14.789Z,19.10
2023-04-23T18:37:41.413Z,19.10
2023-04-23T18:40:08.842Z,19.00
2023-04-23T18:42:35.564Z,18.90
2023-04-23T18:45:04.117Z,18.90
2023-04-23T18:47:44.003Z,18.80
2023-04-23T18:50:37.838Z,18.80
2023-04-23T18:53:04.924Z,18.70
2023-04-23T18:55:31.671Z,18.60
2023-04-23T18:57:58.861Z,18.50
2023-04-23T19:00:25.743Z,18.40
2023-04-23T19:02:52.589Z,18.30
2023-04-23T19:05:19.846Z,18.20
2023-04-23T19:07:48.239Z,18.20
2023-04-23T19:10:16.553Z,18.00
2023-04-23T19:12:43.970Z,17.90
2023-04-23T19:15:11.355Z,17.80
2023-04-23T19:17:38.505Z,17.70
2023-04-23T19:20:09.221Z,17.60
2023-04-23T19:22:35.888Z,17.50
2023-04-23T19:25:02.666Z,17.40
2023-04-23T19:27:29.406Z,17.40
2023-04-23T19:29:56.604Z,17.30
2023-04-23T19:32:23.364Z,17.20
2023-04-23T19:34:50.262Z,17.20
2023-04-23T19:37:16.951Z,17.10
2023-04-23T19:39:43.893Z,17.10
2023-04-23T19:42:11.286Z,17.00
2023-04-23T19:44:37.938Z,17.00
2023-04-23T19:47:05.302Z,16.90
2023-04-23T19:49:32.085Z,16.80
2023-04-23T19:51:59.292Z,16.80
2023-04-23T19:54:26.254Z,16.70
2023-04-23T19:56:52.943Z,16.70
2023-04-23T19:59:20.951Z,16.60
2023-04-23T20:01:48.275Z,16.60
2023-04-23T20:04:15.808Z,16.60
2023-04-23T20:06:43.266Z,16.50
2023-04-23T20:09:17.903Z,16.40
2023-04-23T20:11:46.059Z,16.40
2023-04-23T20:14:13.030Z,16.30
2023-04-23T20:16:40.759Z,16.30
2023-04-23T20:19:11.257Z,16.30
2023-04-23T20:21:39.164Z,16.20
2023-04-23T20:24:07.568Z,16.20
2023-04-23T20:26:37.242Z,16.20
2023-04-23T20:29:04.794Z,16.10
2023-04-23T20:31:32.012Z,16.10
2023-04-23T20:33:59.254Z,16.00
2023-04-23T20:36:31.455Z,16.00
2023-04-23T20:38:59.465Z,15.90
2023-04-23T20:41:29.089Z,15.90
2023-04-23T20:43:57.011Z,15.90
2023-04-23T20:46:30.096Z,15.80
2023-04-23T20:48:58.192Z,15.80
2023-04-23T20:51:25.293Z,15.80
2023-04-23T20:53:52.034Z,15.70
2023-04-23T20:56:18.991Z,15.70
2023-04-23T20:58:46.031Z,15.70
2023-04-23T21:01:12.888Z,15.70
2023-04-23T21:03:40.629Z,15.60
2023-04-23T21:06:09.689Z,15.60
2023-04-23T21:08:41.257Z,15.60
2023-04-23T21:11:11.190Z,15.60
2023-04-23T21:13:38.187Z,15.60
2023-04-23T21:16:05.200Z,15.60
2023-04-23T21:18:32.075Z,15.60
2023-04-23T21:20:58.846Z,15.60
2023-04-23T21:23:25.680Z,15.60
2023-04-23T21:25:52.398Z,15.60
2023-04-23T21:28:19.558Z,15.60
2023-04-23T21:30:52.011Z,15.60
2023-04-23T21:33:20.553Z,15.60
2023-04-23T21:35:48.588Z,15.60
2023-04-23T21:38:15.438Z,15.60
2023-04-23T21:40:42.441Z,15.60
2023-04-23T21:43:09.603Z,15.60
2023-04-23T21:45:36.324Z,15.70
2023-04-23T21:48:03.142Z,15.70
2023-04-23T21:50:31.182Z,15.70
2023-04-23T21:52:59.355Z,15.70
2023-04-23T21:55:31.475Z,15.80
2023-04-23T21:58:09.888Z,15.70
2023-04-23T22:00:44.321Z,15.80
2023-04-23T22:03:11.835Z,15.80
2023-04-23T22:05:39.578Z,15.70
2023-04-23T22:08:07.436Z,15.70
2023-04-23T22:10:34.363Z,15.70
2023-04-23T22:13:01.238Z,15.70
2023-04-23T22:15:29.270Z,15.70
2023-04-23T22:17:58.968Z,15.60
2023-04-23T22:20:25.736Z,15.60
2023-04-23T22:22:52.666Z,15.60
2023-04-23T22:25:19.451Z,15.60
2023-04-23T22:27:46.169Z,15.50
2023-04-23T22:30:13.380Z,15.50
2023-04-23T22:32:40.854Z,15.50
2023-04-23T22:35:08.358Z,15.40
2023-04-23T22:37:35.400Z,15.40
2023-04-23T22:40:03.966Z,15.40
2023-04-23T22:42:31.069Z,15.30
2023-04-23T22:44:57.813Z,15.30
2023-04-23T22:47:25.069Z,15.30
2023-04-23T22:49:51.850Z,15.30
2023-04-23T22:52:18.979Z,15.20
2023-04-23T22:54:47.667Z,15.20
2023-04-23T22:57:14.398Z,15.20
2023-04-23T22:59:41.307Z,15.20
2023-04-23T23:02:08.138Z,15.20
2023-04-23T23:04:38.326Z,15.20
2023-04-23T23:07:08.949Z,15.20
2023-04-23T23:09:35.901Z,15.20
2023-04-23T23:12:03.807Z,15.20
2023-04-23T23:14:31.764Z,15.10
2023-04-23T23:16:58.917Z,15.10
2023-04-23T23:19:28.581Z,15.20
2023-04-23T23:21:55.641Z,15.20
2023-04-23T23:24:23.175Z,15.10
2023-04-23T23:26:50.691Z,15.10
2023-04-23T23:29:17.354Z,15.10
2023-04-23T23:31:44.260Z,15.10
2023-04-23T23:34:11.689Z,15.10
2023-04-23T23:36:38.492Z,15.10
2023-04-23T23:39:06.445Z,15.10
2023-04-23T23:41:33.201Z,15.10
2023-04-23T23:43:59.946Z,15.10
2023-04-23T23:46:26.658Z,15.10
2023-04-23T23:48:53.340Z,15.10
2023-04-23T23:51:20.208Z,15.10
2023-04-23T23:53:46.894Z,15.10
2023-04-23T23:56:13.576Z,15.10
2023-04-23T23:58:40.443Z,15.10
